createdAt,value
2022-07-31T00:01:55.991Z,29.58
2022-07-31T00:04:44.636Z,29.93
2022-07-31T00:07:26.616Z,29.91
2022-07-31T00:10:16.616Z,29.79
2022-07-31T00:13:06.337Z,29.61
2022-07-31T00:15:54.624Z,29.79
2022-07-31T00:18:36.571Z,29.70
2022-07-31T00:21:25.630Z,29.45
2022-07-31T00:24:07.232Z,29.60
2022-07-31T00:26:48.721Z,29.99
2022-07-31T00:29:41.348Z,29.87
2022-07-31T00:32:23.853Z,29.76
2022-07-31T00:35:12.606Z,29.82
2022-07-31T00:38:25.694Z,29.73
2022-07-31T00:41:17.568Z,29.65
2022-07-31T00:43:59.494Z,29.99
2022-07-31T00:46:49.567Z,30.14
2022-07-31T00:49:37.329Z,29.97
2022-07-31T00:52:27.338Z,29.80
2022-07-31T00:55:10.113Z,29.84
2022-07-31T00:57:58.237Z,29.91
2022-07-31T01:00:40.331Z,29.96
2022-07-31T01:03:29.509Z,29.97
2022-07-31T01:06:11.718Z,30.04
2022-07-31T01:09:00.366Z,30.17
2022-07-31T01:12:00.385Z,30.11
2022-07-31T01:14:54.590Z,30.23
2022-07-31T01:17:37.793Z,29.93
2022-07-31T01:20:26.589Z,29.90
2022-07-31T01:23:24.125Z,30.13
2022-07-31T01:27:02.516Z,30.01
2022-07-31T01:29:55.348Z,30.13
2022-07-31T01:33:02.605Z,30.04
2022-07-31T01:35:57.641Z,30.15
2022-07-31T01:38:46.347Z,29.84
2022-07-31T01:41:46.202Z,30.22
2022-07-31T01:44:43.589Z,29.96
2022-07-31T01:47:29.594Z,29.97
2022-07-31T01:50:42.122Z,30.08
2022-07-31T01:53:24.670Z,30.15
2022-07-31T01:56:17.605Z,30.18
2022-07-31T01:59:00.892Z,30.14
2022-07-31T02:01:58.375Z,29.94
2022-07-31T02:04:41.790Z,30.53
2022-07-31T02:07:32.368Z,30.30
2022-07-31T02:10:19.623Z,30.77
2022-07-31T02:13:10.590Z,30.67
2022-07-31T02:15:53.855Z,30.85
2022-07-31T02:18:43.334Z,30.96
2022-07-31T02:21:40.611Z,30.79
2022-07-31T02:24:29.856Z,30.81
2022-07-31T02:27:53.727Z,30.67
2022-07-31T02:30:21.291Z,30.32
2022-07-31T02:33:11.601Z,30.63
2022-07-31T02:36:06.995Z,30.76
2022-07-31T02:38:51.597Z,30.45
2022-07-31T02:41:40.591Z,30.71
2022-07-31T02:44:29.877Z,30.75
2022-07-31T02:47:12.332Z,30.85
2022-07-31T02:50:01.619Z,30.74
2022-07-31T02:52:46.374Z,30.80
2022-07-31T02:55:29.233Z,30.91
2022-07-31T02:58:18.351Z,31.01
2022-07-31T03:01:07.501Z,30.70
2022-07-31T03:03:57.592Z,30.55
2022-07-31T03:06:45.880Z,30.86
2022-07-31T03:09:27.576Z,31.08
2022-07-31T03:12:27.628Z,30.61
2022-07-31T03:15:19.041Z,30.92
2022-07-31T03:18:11.786Z,30.66
2022-07-31T03:20:54.587Z,30.28
2022-07-31T03:23:46.598Z,29.92
2022-07-31T03:26:30.712Z,29.53
2022-07-31T03:29:38.903Z,29.29
2022-07-31T03:32:22.697Z,29.16
2022-07-31T03:35:11.578Z,28.83
2022-07-31T03:37:53.694Z,28.41
2022-07-31T03:40:43.572Z,28.55
2022-07-31T03:43:43.641Z,28.56
2022-07-31T03:46:37.602Z,28.43
2022-07-31T03:49:19.932Z,28.88
2022-07-31T03:52:12.028Z,28.23
2022-07-31T03:55:01.238Z,28.48
2022-07-31T03:57:51.602Z,28.26
2022-07-31T04:00:35.556Z,27.87
2022-07-31T04:03:24.356Z,28.50
2022-07-31T04:06:44.339Z,28.62
2022-07-31T04:09:28.790Z,28.49
2022-07-31T04:12:20.588Z,28.56
2022-07-31T04:15:02.933Z,28.75
2022-07-31T04:17:51.379Z,28.78
2022-07-31T04:20:42.247Z,28.43
2022-07-31T04:23:32.600Z,28.43
2022-07-31T04:26:40.590Z,28.74
2022-07-31T04:29:29.330Z,28.94
2022-07-31T04:32:20.579Z,28.75
2022-07-31T04:35:08.557Z,28.25
2022-07-31T04:37:57.595Z,29.23
2022-07-31T04:40:42.753Z,29.38
2022-07-31T04:43:38.331Z,29.62
2022-07-31T04:46:21.073Z,29.54
2022-07-31T04:49:10.495Z,29.39
2022-07-31T04:51:58.645Z,29.46
2022-07-31T04:54:41.566Z,29.81
2022-07-31T04:57:29.519Z,29.41
2022-07-31T05:00:17.327Z,29.31
2022-07-31T05:03:05.870Z,29.62
2022-07-31T05:05:50.999Z,29.50
2022-07-31T05:08:32.798Z,29.58
2022-07-31T05:11:31.574Z,29.78
2022-07-31T05:14:14.788Z,30.68
2022-07-31T05:17:03.573Z,30.89
2022-07-31T05:20:14.581Z,30.95
2022-07-31T05:23:19.596Z,30.63
2022-07-31T05:26:12.598Z,31.00
2022-07-31T05:29:03.339Z,31.14
2022-07-31T05:32:00.753Z,30.48
2022-07-31T05:34:44.676Z,30.91
2022-07-31T05:37:33.571Z,30.78
2022-07-31T05:40:17.609Z,30.38
2022-07-31T05:43:26.576Z,30.70
2022-07-31T05:46:32.315Z,30.34
2022-07-31T05:49:15.895Z,30.82
2022-07-31T05:52:07.597Z,31.26
2022-07-31T05:54:57.345Z,31.48
2022-07-31T05:57:57.906Z,31.48
2022-07-31T06:00:46.594Z,31.71
2022-07-31T06:03:51.754Z,31.29
2022-07-31T06:06:47.316Z,31.46
2022-07-31T06:09:36.577Z,32.09
2022-07-31T06:12:18.560Z,32.06
2022-07-31T06:15:08.566Z,31.57
2022-07-31T06:17:58.012Z,32.54
2022-07-31T06:20:40.584Z,31.50
2022-07-31T06:23:32.255Z,31.60
2022-07-31T06:26:32.222Z,31.87
2022-07-31T06:29:14.985Z,32.58
2022-07-31T06:32:03.497Z,32.31
2022-07-31T06:34:46.641Z,32.90
2022-07-31T06:37:37.343Z,32.32
2022-07-31T06:40:19.765Z,32.63
2022-07-31T06:43:27.813Z,32.19
2022-07-31T06:46:48.875Z,31.84
2022-07-31T06:49:56.363Z,32.30
2022-07-31T06:52:44.942Z,32.76
2022-07-31T06:55:33.566Z,32.37
2022-07-31T06:58:15.756Z,32.46
2022-07-31T07:01:04.634Z,31.84
2022-07-31T07:03:47.116Z,31.67
2022-07-31T07:06:35.567Z,32.07
2022-07-31T07:09:24.311Z,31.67
2022-07-31T07:12:16.620Z,32.08
2022-07-31T07:14:59.585Z,31.99
2022-07-31T07:17:47.821Z,31.98
2022-07-31T07:20:40.361Z,31.59
2022-07-31T07:23:30.389Z,32.28
2022-07-31T07:26:25.776Z,32.30
2022-07-31T07:29:18.566Z,33.24
2022-07-31T07:32:00.913Z,33.51
2022-07-31T07:34:49.218Z,33.16
2022-07-31T07:37:57.013Z,33.53
2022-07-31T07:40:45.576Z,33.28
2022-07-31T07:43:28.024Z,33.15
2022-07-31T07:46:23.601Z,32.23
2022-07-31T07:49:08.831Z,31.85
2022-07-31T07:52:28.945Z,32.71
2022-07-31T07:55:13.835Z,33.07
2022-07-31T07:58:33.583Z,31.66
2022-07-31T08:01:41.633Z,32.56
2022-07-31T08:04:35.597Z,32.37
2022-07-31T08:07:23.592Z,33.04
2022-07-31T08:10:50.369Z,32.50
2022-07-31T08:13:50.874Z,32.76
2022-07-31T08:16:58.555Z,33.11
2022-07-31T08:19:51.162Z,33.00
2022-07-31T08:22:33.329Z,32.98
2022-07-31T08:25:21.827Z,32.33
2022-07-31T08:28:04.309Z,32.78
2022-07-31T08:30:55.751Z,33.24
2022-07-31T08:33:40.593Z,33.01
2022-07-31T08:36:28.772Z,33.29
2022-07-31T08:39:11.326Z,32.67
2022-07-31T08:42:14.375Z,33.09
2022-07-31T08:45:03.355Z,32.96
2022-07-31T08:48:05.564Z,33.14
2022-07-31T08:51:02.336Z,32.18
2022-07-31T08:54:03.726Z,32.51
2022-07-31T08:56:46.574Z,32.56
2022-07-31T08:59:28.699Z,32.32
2022-07-31T09:02:17.553Z,32.64
2022-07-31T09:05:42.382Z,32.57
2022-07-31T09:08:31.331Z,32.60
2022-07-31T09:11:16.147Z,32.62
2022-07-31T09:14:18.365Z,32.99
2022-07-31T09:17:16.165Z,32.24
2022-07-31T09:19:59.325Z,32.52
2022-07-31T09:22:42.433Z,32.94
2022-07-31T09:25:31.338Z,32.94
2022-07-31T09:28:13.656Z,32.73
2022-07-31T09:31:10.336Z,32.52
2022-07-31T09:34:12.970Z,32.58
2022-07-31T09:37:24.521Z,32.44
2022-07-31T09:40:57.082Z,32.80
2022-07-31T09:44:09.459Z,32.96
2022-07-31T09:47:04.497Z,32.70
2022-07-31T09:49:57.300Z,32.18
2022-07-31T09:53:01.591Z,32.56
2022-07-31T09:56:05.325Z,33.08
2022-07-31T09:58:49.003Z,33.35
2022-07-31T10:01:43.579Z,33.44
2022-07-31T10:04:27.628Z,33.15
2022-07-31T10:07:32.308Z,32.93
2022-07-31T10:10:21.934Z,32.87
2022-07-31T10:13:23.566Z,32.18
2022-07-31T10:16:15.579Z,32.85
2022-07-31T10:19:16.784Z,33.06
2022-07-31T10:22:19.429Z,33.05
2022-07-31T10:25:04.454Z,32.80
2022-07-31T10:27:54.377Z,32.75
2022-07-31T10:30:44.570Z,32.73
2022-07-31T10:33:44.072Z,32.97
2022-07-31T10:36:49.396Z,32.55
2022-07-31T10:40:15.312Z,32.67
2022-07-31T10:43:30.205Z,32.39
2022-07-31T10:46:48.331Z,32.34
2022-07-31T10:49:51.649Z,32.32
2022-07-31T10:53:09.548Z,32.65
2022-07-31T10:56:11.802Z,32.54
2022-07-31T10:59:15.558Z,32.15
2022-07-31T11:02:15.421Z,32.34
2022-07-31T11:05:30.644Z,32.40
2022-07-31T11:08:26.323Z,32.34
2022-07-31T11:11:17.758Z,32.28
2022-07-31T11:14:22.561Z,32.13
2022-07-31T11:18:21.160Z,32.29
2022-07-31T11:21:35.818Z,32.11
2022-07-31T11:24:36.544Z,32.03
2022-07-31T11:27:24.506Z,31.96
2022-07-31T11:30:17.545Z,31.93
2022-07-31T11:32:59.546Z,31.79
2022-07-31T11:36:00.307Z,31.83
2022-07-31T11:38:54.786Z,31.67
2022-07-31T11:41:44.282Z,31.41
2022-07-31T11:44:26.404Z,31.39
2022-07-31T11:47:55.991Z,31.78
2022-07-31T11:50:23.468Z,31.37
2022-07-31T11:53:14.576Z,31.33
2022-07-31T11:55:58.723Z,31.36
2022-07-31T11:58:48.572Z,31.31
2022-07-31T12:01:31.242Z,31.07
2022-07-31T12:04:20.538Z,31.21
2022-07-31T12:07:09.586Z,31.58
2022-07-31T12:10:00.621Z,31.58
2022-07-31T12:12:50.619Z,31.87
2022-07-31T12:15:32.327Z,31.30
2022-07-31T12:18:14.657Z,31.44
2022-07-31T12:21:16.308Z,31.18
2022-07-31T12:24:06.284Z,31.00
2022-07-31T12:26:57.064Z,31.16
2022-07-31T12:29:48.557Z,31.14
2022-07-31T12:32:34.836Z,30.81
2022-07-31T12:35:23.321Z,30.76
2022-07-31T12:38:24.022Z,31.12
2022-07-31T12:41:15.559Z,31.26
2022-07-31T12:43:57.617Z,31.40
2022-07-31T12:46:46.552Z,31.57
2022-07-31T12:49:41.535Z,31.58
2022-07-31T12:52:31.307Z,31.47
2022-07-31T12:55:13.805Z,31.34
2022-07-31T12:58:05.596Z,31.37
2022-07-31T13:00:47.759Z,31.38
2022-07-31T13:03:38.912Z,31.32
2022-07-31T13:06:29.230Z,30.89
2022-07-31T13:09:18.310Z,30.85
2022-07-31T13:12:00.639Z,30.81
2022-07-31T13:14:49.259Z,30.66
2022-07-31T13:17:43.533Z,30.74
2022-07-31T13:20:26.305Z,30.64
2022-07-31T13:23:15.333Z,30.91
2022-07-31T13:26:08.549Z,31.03
2022-07-31T13:28:50.882Z,30.94
2022-07-31T13:31:39.335Z,30.89
2022-07-31T13:34:21.799Z,30.80
2022-07-31T13:37:10.329Z,30.85
2022-07-31T13:39:59.344Z,30.68
2022-07-31T13:42:48.219Z,30.55
2022-07-31T13:45:31.739Z,30.61
2022-07-31T13:48:20.537Z,30.32
2022-07-31T13:51:09.561Z,30.13
2022-07-31T13:53:59.553Z,30.35
2022-07-31T13:56:43.723Z,29.80
2022-07-31T13:59:32.288Z,30.12
2022-07-31T14:02:15.251Z,30.39
2022-07-31T14:05:04.624Z,30.35
2022-07-31T14:07:51.994Z,30.12
2022-07-31T14:10:42.553Z,30.17
2022-07-31T14:13:42.197Z,30.41
2022-07-31T14:16:24.522Z,30.40
2022-07-31T14:19:13.456Z,30.42
2022-07-31T14:21:57.020Z,30.44
2022-07-31T14:24:50.046Z,30.17
2022-07-31T14:27:47.297Z,30.09
2022-07-31T14:30:29.855Z,30.22
2022-07-31T14:33:19.311Z,29.74
2022-07-31T14:36:08.536Z,29.99
2022-07-31T14:38:50.910Z,30.09
2022-07-31T14:41:39.580Z,29.94
2022-07-31T14:44:28.816Z,29.88
2022-07-31T14:47:19.289Z,29.90
2022-07-31T14:50:19.248Z,30.07
2022-07-31T14:53:07.620Z,29.91
2022-07-31T14:55:51.883Z,29.83
2022-07-31T14:58:58.568Z,29.82
2022-07-31T15:01:40.967Z,29.84
2022-07-31T15:04:29.559Z,29.86
2022-07-31T15:07:34.327Z,29.79
2022-07-31T15:10:20.561Z,29.74
2022-07-31T15:13:02.985Z,29.86
2022-07-31T15:15:51.570Z,29.95
2022-07-31T15:18:33.917Z,30.13
2022-07-31T15:21:25.317Z,29.93
2022-07-31T15:24:14.568Z,29.63
2022-07-31T15:27:03.805Z,29.56
2022-07-31T15:30:03.417Z,29.64
2022-07-31T15:32:49.172Z,29.59
2022-07-31T15:35:38.307Z,29.66
2022-07-31T15:38:27.309Z,29.58
2022-07-31T15:41:09.642Z,29.27
2022-07-31T15:43:58.547Z,28.85
2022-07-31T15:46:47.310Z,29.00
2022-07-31T15:49:44.414Z,29.21
2022-07-31T15:52:42.410Z,29.30
2022-07-31T15:55:31.553Z,29.52
2022-07-31T15:58:20.536Z,29.54
2022-07-31T16:01:03.016Z,29.63
2022-07-31T16:03:53.438Z,29.66
2022-07-31T16:06:35.495Z,29.63
2022-07-31T16:09:24.560Z,29.56
2022-07-31T16:12:13.643Z,29.74
2022-07-31T16:14:56.577Z,29.59
2022-07-31T16:17:39.763Z,29.64
2022-07-31T16:20:31.370Z,29.57
2022-07-31T16:23:20.832Z,29.79
2022-07-31T16:26:03.336Z,29.59
2022-07-31T16:28:54.282Z,29.62
2022-07-31T16:31:36.577Z,29.62
2022-07-31T16:34:21.562Z,29.53
2022-07-31T16:37:10.526Z,29.34
2022-07-31T16:39:54.732Z,29.46
2022-07-31T16:42:45.032Z,29.62
2022-07-31T16:45:33.560Z,29.43
2022-07-31T16:48:15.863Z,29.41
2022-07-31T16:51:04.330Z,29.64
2022-07-31T16:54:10.912Z,29.54
2022-07-31T16:56:54.548Z,29.60
2022-07-31T16:59:57.919Z,29.73
2022-07-31T17:02:46.547Z,29.74
2022-07-31T17:05:34.666Z,29.85
2022-07-31T17:08:16.330Z,29.72
2022-07-31T17:11:04.961Z,29.67
2022-07-31T17:13:47.546Z,29.62
2022-07-31T17:16:29.803Z,29.65
2022-07-31T17:19:41.414Z,29.66
2022-07-31T17:22:27.570Z,29.47
2022-07-31T17:25:09.619Z,29.65
2022-07-31T17:27:59.557Z,29.64
2022-07-31T17:30:41.529Z,29.46
2022-07-31T17:33:59.228Z,29.48
2022-07-31T17:36:39.524Z,29.66
2022-07-31T17:39:30.888Z,29.68
2022-07-31T17:42:14.561Z,29.80
2022-07-31T17:45:06.556Z,29.60
2022-07-31T17:47:48.715Z,29.66
2022-07-31T17:50:54.211Z,29.61
2022-07-31T17:53:55.428Z,29.65
2022-07-31T17:56:54.302Z,29.85
2022-07-31T17:59:42.660Z,29.78
2022-07-31T18:02:40.567Z,29.69
2022-07-31T18:05:22.716Z,29.63
2022-07-31T18:08:11.557Z,29.49
2022-07-31T18:10:54.800Z,29.57
2022-07-31T18:13:48.010Z,29.43
2022-07-31T18:16:31.075Z,29.50
2022-07-31T18:19:19.331Z,29.51
2022-07-31T18:22:03.146Z,29.28
2022-07-31T18:24:52.546Z,29.31
2022-07-31T18:27:41.298Z,29.10
2022-07-31T18:30:24.254Z,28.92
2022-07-31T18:33:21.521Z,28.86
2022-07-31T18:36:10.297Z,29.08
2022-07-31T18:38:52.292Z,29.00
2022-07-31T18:41:48.365Z,29.06
2022-07-31T18:44:30.572Z,28.56
2022-07-31T18:47:18.672Z,29.02
2022-07-31T18:51:01.114Z,29.09
2022-07-31T18:53:03.521Z,28.96
2022-07-31T18:55:59.191Z,28.89
2022-07-31T18:58:50.602Z,28.99
2022-07-31T19:01:39.485Z,28.63
2022-07-31T19:04:31.572Z,28.82
2022-07-31T19:07:20.531Z,28.90
2022-07-31T19:10:09.640Z,28.93
2022-07-31T19:13:18.621Z,28.92
2022-07-31T19:16:08.559Z,28.84
2022-07-31T19:18:50.807Z,28.86
2022-07-31T19:21:42.134Z,28.83
2022-07-31T19:24:25.035Z,28.92
2022-07-31T19:27:13.600Z,28.87
2022-07-31T19:29:55.894Z,28.92
2022-07-31T19:32:45.581Z,28.93
2022-07-31T19:35:28.045Z,28.89
2022-07-31T19:38:16.556Z,28.96
2022-07-31T19:40:58.994Z,28.95
2022-07-31T19:43:47.188Z,28.96
2022-07-31T19:46:29.950Z,29.07
2022-07-31T19:49:18.651Z,28.99
2022-07-31T19:52:07.613Z,28.89
2022-07-31T19:55:02.147Z,28.91
2022-07-31T19:57:50.543Z,28.94
2022-07-31T20:00:39.567Z,28.90
2022-07-31T20:03:21.992Z,28.82
2022-07-31T20:06:10.273Z,28.75
2022-07-31T20:08:52.602Z,28.82
2022-07-31T20:11:41.546Z,28.94
2022-07-31T20:14:29.481Z,28.89
2022-07-31T20:17:11.215Z,28.96
2022-07-31T20:20:14.707Z,28.83
2022-07-31T20:22:57.635Z,28.82
2022-07-31T20:25:47.531Z,28.81
2022-07-31T20:28:29.732Z,28.69
2022-07-31T20:31:21.764Z,28.70
2022-07-31T20:34:10.320Z,28.47
2022-07-31T20:37:00.283Z,28.70
2022-07-31T20:39:49.314Z,28.72
2022-07-31T20:42:31.789Z,28.80
2022-07-31T20:45:21.282Z,27.96
2022-07-31T20:48:10.288Z,28.45
2022-07-31T20:50:59.519Z,28.62
2022-07-31T20:53:48.541Z,28.65
2022-07-31T20:56:36.814Z,28.82
2022-07-31T20:59:18.456Z,28.72
2022-07-31T21:02:00.403Z,28.46
2022-07-31T21:04:49.521Z,28.69
2022-07-31T21:07:31.355Z,28.38
2022-07-31T21:10:21.269Z,28.64
2022-07-31T21:13:04.431Z,28.54
2022-07-31T21:15:53.305Z,28.64
2022-07-31T21:18:40.007Z,28.73
2022-07-31T21:21:32.533Z,28.46
2022-07-31T21:24:15.581Z,28.22
2022-07-31T21:27:06.429Z,28.50
2022-07-31T21:29:49.887Z,28.58
2022-07-31T21:32:40.557Z,28.64
2022-07-31T21:35:36.693Z,28.78
2022-07-31T21:38:26.309Z,28.58
2022-07-31T21:41:09.173Z,28.68
2022-07-31T21:43:59.864Z,28.72
2022-07-31T21:46:42.047Z,28.75
2022-07-31T21:49:36.333Z,28.80
2022-07-31T21:52:24.651Z,28.87
2022-07-31T21:55:11.178Z,28.83
2022-07-31T21:58:06.546Z,29.00
2022-07-31T22:00:55.680Z,28.95
2022-07-31T22:03:37.272Z,28.85
2022-07-31T22:06:44.542Z,28.79
2022-07-31T22:09:27.599Z,28.76
2022-07-31T22:12:16.305Z,28.73
2022-07-31T22:14:58.830Z,28.87
2022-07-31T22:17:47.528Z,28.89
2022-07-31T22:20:29.727Z,28.76
2022-07-31T22:23:18.553Z,28.84
2022-07-31T22:26:00.441Z,28.70
2022-07-31T22:28:50.288Z,28.88
2022-07-31T22:31:33.792Z,28.94
2022-07-31T22:34:37.059Z,28.65
2022-07-31T22:37:20.928Z,28.85
2022-07-31T22:40:09.530Z,28.88
2022-07-31T22:42:56.062Z,28.91
2022-07-31T22:45:46.326Z,28.96
2022-07-31T22:48:30.571Z,28.87
2022-07-31T22:51:19.279Z,29.01
2022-07-31T22:54:01.795Z,29.10
2022-07-31T22:56:50.541Z,29.12
2022-07-31T22:59:32.842Z,29.13
2022-07-31T23:02:23.571Z,29.21
2022-07-31T23:05:05.846Z,29.12
2022-07-31T23:07:54.517Z,29.20
2022-07-31T23:10:36.583Z,29.07
2022-07-31T23:13:25.531Z,29.13
2022-07-31T23:16:07.741Z,29.11
2022-07-31T23:18:57.531Z,29.13
2022-07-31T23:21:39.589Z,29.07
2022-07-31T23:24:28.284Z,29.11
2022-07-31T23:27:17.513Z,29.25
2022-07-31T23:30:06.282Z,29.30
2022-07-31T23:32:48.861Z,29.17
2022-07-31T23:35:37.547Z,29.05
2022-07-31T23:38:19.565Z,29.15
2022-07-31T23:41:08.526Z,29.07
2022-07-31T23:43:54.211Z,28.99
2022-07-31T23:46:39.580Z,28.99
2022-07-31T23:49:28.842Z,29.12
2022-07-31T23:52:10.529Z,29.04
2022-07-31T23:54:52.380Z,29.14
2022-07-31T23:57:41.246Z,29.14
